createdAt,value
2019-05-10T00:01:59.908Z,99662.14
2019-05-10T00:04:46.544Z,99657.37
2019-05-10T00:07:33.406Z,99660.56
2019-05-10T00:10:08.260Z,99655.12
2019-05-10T00:12:48.771Z,99664.63
2019-05-10T00:15:19.478Z,99663.78
2019-05-10T00:17:52.739Z,99658.17
2019-05-10T00:20:21.919Z,99660.74
2019-05-10T00:22:50.985Z,99660.10
2019-05-10T00:25:20.390Z,99660.02
2019-05-10T00:27:49.488Z,99671.16
2019-05-10T00:30:20.299Z,99668.23
2019-05-10T00:32:49.663Z,99668.55
2019-05-10T00:35:18.759Z,99673.91
2019-05-10T00:37:47.890Z,99675.88
2019-05-10T00:40:17.253Z,99680.31
2019-05-10T00:42:48.057Z,99675.86
2019-05-10T00:45:17.104Z,99672.73
2019-05-10T00:47:46.462Z,99673.23
2019-05-10T00:50:17.911Z,99679.55
2019-05-10T00:52:47.886Z,99675.52
2019-05-10T00:55:19.257Z,99673.03
2019-05-10T00:57:49.381Z,99677.02
2019-05-10T01:00:19.894Z,99682.06
2019-05-10T01:02:49.170Z,99686.86
2019-05-10T01:05:19.520Z,99687.33
2019-05-10T01:07:48.547Z,99687.70
2019-05-10T01:10:17.978Z,99693.34
2019-05-10T01:12:47.075Z,99697.37
2019-05-10T01:15:16.255Z,99698.85
2019-05-10T01:17:45.622Z,99700.87
2019-05-10T01:20:14.929Z,99696.60
2019-05-10T01:22:44.006Z,99699.70
2019-05-10T01:25:13.478Z,99697.65
2019-05-10T01:27:42.602Z,99698.83
2019-05-10T01:30:13.765Z,99704.56
2019-05-10T01:32:43.185Z,99702.02
2019-05-10T01:35:12.299Z,99704.94
2019-05-10T01:37:44.224Z,99700.83
2019-05-10T01:40:16.342Z,99708.52
2019-05-10T01:42:45.444Z,99715.70
2019-05-10T01:45:15.879Z,99708.35
2019-05-10T01:47:45.440Z,99716.63
2019-05-10T01:50:14.590Z,99717.66
2019-05-10T01:52:45.401Z,99712.69
2019-05-10T01:55:18.959Z,99717.55
2019-05-10T01:57:48.022Z,99716.30
2019-05-10T02:00:18.509Z,99724.52
2019-05-10T02:02:48.545Z,99728.88
2019-05-10T02:05:17.698Z,99727.47
2019-05-10T02:07:46.869Z,99727.51
2019-05-10T02:10:20.958Z,99731.13
2019-05-10T02:12:51.293Z,99739.67
2019-05-10T02:15:20.760Z,99755.33
2019-05-10T02:17:52.926Z,99757.23
2019-05-10T02:20:22.773Z,99744.02
2019-05-10T02:22:51.849Z,99753.08
2019-05-10T02:25:21.362Z,99758.34
2019-05-10T02:27:52.281Z,99753.03
2019-05-10T02:30:21.371Z,99756.23
2019-05-10T02:32:53.644Z,99761.20
2019-05-10T02:35:25.975Z,99767.25
2019-05-10T02:37:56.895Z,99754.20
2019-05-10T02:40:26.360Z,99757.87
2019-05-10T02:42:56.677Z,99756.02
2019-05-10T02:45:28.242Z,99773.42
2019-05-10T02:48:00.872Z,99763.53
2019-05-10T02:50:31.102Z,99766.97
2019-05-10T02:53:00.569Z,99761.12
2019-05-10T02:55:31.875Z,99764.37
2019-05-10T02:58:02.769Z,99770.38
2019-05-10T03:00:34.669Z,99762.55
2019-05-10T03:03:05.841Z,99760.55
2019-05-10T03:05:38.087Z,99763.22
2019-05-10T03:08:10.591Z,99767.39
2019-05-10T03:10:42.909Z,99770.77
2019-05-10T03:13:15.722Z,99777.48
2019-05-10T03:15:47.553Z,99785.22
2019-05-10T03:18:16.982Z,99787.45
2019-05-10T03:20:47.898Z,99787.64
2019-05-10T03:23:17.633Z,99795.87
2019-05-10T03:25:46.865Z,99793.02
2019-05-10T03:28:16.078Z,99797.84
2019-05-10T03:30:45.438Z,99800.61
2019-05-10T03:33:14.477Z,99801.12
2019-05-10T03:35:46.614Z,99803.05
2019-05-10T03:38:16.011Z,99805.59
2019-05-10T03:40:45.251Z,99810.97
2019-05-10T03:43:16.434Z,99813.36
2019-05-10T03:45:45.844Z,99815.33
2019-05-10T03:48:14.921Z,99816.28
2019-05-10T03:50:43.987Z,99810.16
2019-05-10T03:53:13.024Z,99820.23
2019-05-10T03:55:44.827Z,99817.50
2019-05-10T03:58:15.477Z,99820.73
2019-05-10T04:00:44.581Z,99815.41
2019-05-10T04:03:13.622Z,99822.73
2019-05-10T04:05:43.023Z,99822.11
2019-05-10T04:08:12.151Z,99828.20
2019-05-10T04:10:41.355Z,99833.18
2019-05-10T04:13:10.743Z,99829.84
2019-05-10T04:15:42.962Z,99836.84
2019-05-10T04:18:13.313Z,99838.12
2019-05-10T04:20:42.892Z,99839.61
2019-05-10T04:23:12.016Z,99835.00
2019-05-10T04:25:41.144Z,99838.05
2019-05-10T04:28:10.507Z,99844.96
2019-05-10T04:30:40.312Z,99849.84
2019-05-10T04:33:09.442Z,99846.97
2019-05-10T04:35:38.911Z,99851.43
2019-05-10T04:38:08.009Z,99859.36
2019-05-10T04:40:37.101Z,99861.83
2019-05-10T04:43:08.795Z,99861.88
2019-05-10T04:45:37.879Z,99865.26
2019-05-10T04:48:06.945Z,99868.97
2019-05-10T04:50:40.130Z,99865.82
2019-05-10T04:53:10.641Z,99870.63
2019-05-10T04:55:39.639Z,99878.80
2019-05-10T04:58:10.414Z,99871.02
2019-05-10T05:00:40.872Z,99879.25
2019-05-10T05:03:11.547Z,99881.59
2019-05-10T05:05:40.974Z,99882.52
2019-05-10T05:08:11.628Z,99887.66
2019-05-10T05:10:40.710Z,99885.16
2019-05-10T05:13:13.285Z,99882.95
2019-05-10T05:15:45.490Z,99890.45
2019-05-10T05:18:14.872Z,99898.61
2019-05-10T05:20:44.016Z,99896.07
2019-05-10T05:23:13.630Z,99905.93
2019-05-10T05:25:43.019Z,99904.59
2019-05-10T05:28:12.449Z,99908.38
2019-05-10T05:30:42.881Z,99909.75
2019-05-10T05:33:18.307Z,99911.27
2019-05-10T05:35:50.143Z,99915.16
2019-05-10T05:38:19.458Z,99913.82
2019-05-10T05:40:48.908Z,99918.57
2019-05-10T05:43:21.242Z,99917.05
2019-05-10T05:45:50.377Z,99916.25
2019-05-10T05:48:21.496Z,99920.58
2019-05-10T05:50:50.880Z,99928.88
2019-05-10T05:53:22.545Z,99926.30
2019-05-10T05:55:51.404Z,99933.52
2019-05-10T05:58:26.534Z,99936.52
2019-05-10T06:00:52.580Z,99934.88
2019-05-10T06:03:27.599Z,99927.05
2019-05-10T06:05:54.041Z,99930.78
2019-05-10T06:08:29.719Z,99934.52
2019-05-10T06:11:00.302Z,99935.52
2019-05-10T06:13:30.660Z,99935.57
2019-05-10T06:16:00.776Z,99938.03
2019-05-10T06:18:31.259Z,99943.91
2019-05-10T06:21:02.193Z,99944.23
2019-05-10T06:23:35.030Z,99943.32
2019-05-10T06:26:03.785Z,99946.25
2019-05-10T06:28:57.710Z,99947.05
2019-05-10T06:31:06.700Z,99944.20
2019-05-10T06:33:39.616Z,99949.58
2019-05-10T06:36:06.949Z,99948.03
2019-05-10T06:38:36.070Z,99945.13
2019-05-10T06:41:10.024Z,99946.64
2019-05-10T06:43:38.811Z,99945.64
2019-05-10T06:46:07.977Z,99942.20
2019-05-10T06:48:37.051Z,99941.84
2019-05-10T06:51:09.767Z,99950.44
2019-05-10T06:53:41.588Z,99947.55
2019-05-10T06:56:11.489Z,99949.14
2019-05-10T06:58:41.040Z,99942.28
2019-05-10T07:01:10.445Z,99947.02
2019-05-10T07:03:39.678Z,99953.17
2019-05-10T07:06:08.838Z,99959.77
2019-05-10T07:08:44.326Z,99962.24
2019-05-10T07:11:10.062Z,99968.09
2019-05-10T07:13:40.532Z,99971.58
2019-05-10T07:16:14.947Z,99972.28
2019-05-10T07:18:41.253Z,99971.04
2019-05-10T07:21:10.599Z,99977.20
2019-05-10T07:23:44.835Z,99970.69
2019-05-10T07:26:17.355Z,99977.13
2019-05-10T07:28:45.433Z,99984.33
2019-05-10T07:31:24.989Z,99985.98
2019-05-10T07:34:03.889Z,99984.94
2019-05-10T07:36:32.656Z,99981.52
2019-05-10T07:39:02.665Z,99989.89
2019-05-10T07:41:36.938Z,99991.03
2019-05-10T07:44:10.564Z,99987.51
2019-05-10T07:46:45.705Z,99989.36
2019-05-10T07:49:10.549Z,99985.63
2019-05-10T07:51:39.999Z,99984.41
2019-05-10T07:54:12.141Z,99981.98
2019-05-10T07:56:45.585Z,99992.09
2019-05-10T07:59:16.184Z,99994.23
2019-05-10T08:01:48.957Z,99994.87
2019-05-10T08:04:19.855Z,100000.70
2019-05-10T08:06:51.864Z,100006.28
2019-05-10T08:09:19.317Z,100011.67
2019-05-10T08:11:54.136Z,100008.44
2019-05-10T08:14:25.104Z,100009.66
2019-05-10T08:16:58.303Z,100010.76
2019-05-10T08:19:24.051Z,100013.67
2019-05-10T08:21:58.070Z,100014.78
2019-05-10T08:24:24.341Z,100013.58
2019-05-10T08:27:06.808Z,100021.67
2019-05-10T08:29:32.865Z,100022.79
2019-05-10T08:32:04.705Z,100026.25
2019-05-10T08:34:35.603Z,100030.80
2019-05-10T08:37:04.680Z,100027.16
2019-05-10T08:39:43.888Z,100026.84
2019-05-10T08:42:27.445Z,100024.17
2019-05-10T08:46:56.610Z,100014.66
2019-05-10T08:49:32.518Z,100022.70
2019-05-10T08:51:56.848Z,100020.32
2019-05-10T08:54:26.683Z,100016.25
2019-05-10T08:57:01.115Z,100020.55
2019-05-10T08:59:30.264Z,100035.17
2019-05-10T09:01:57.723Z,100026.00
2019-05-10T09:04:33.849Z,100029.73
2019-05-10T09:07:02.623Z,100030.05
2019-05-10T09:09:33.847Z,100029.02
2019-05-10T09:12:08.988Z,100025.17
2019-05-10T09:14:32.953Z,100028.53
2019-05-10T09:17:04.355Z,100027.77
2019-05-10T09:19:37.499Z,100026.79
2019-05-10T09:22:07.158Z,100032.25
2019-05-10T09:24:43.156Z,100033.06
2019-05-10T09:27:07.061Z,100038.93
2019-05-10T09:29:37.485Z,100032.33
2019-05-10T09:32:06.912Z,100037.79
2019-05-10T09:34:36.221Z,100038.13
2019-05-10T09:37:08.031Z,100045.13
2019-05-10T09:39:36.201Z,100039.50
2019-05-10T09:42:09.911Z,100039.38
2019-05-10T09:44:37.435Z,100045.30
2019-05-10T09:47:06.460Z,100044.56
2019-05-10T09:49:36.740Z,100050.23
2019-05-10T09:52:12.777Z,100052.50
2019-05-10T09:54:40.607Z,100044.47
2019-05-10T09:57:10.076Z,100050.50
2019-05-10T09:59:39.395Z,100046.53
2019-05-10T10:02:14.580Z,100042.72
2019-05-10T10:04:39.288Z,100038.52
2019-05-10T10:07:08.715Z,100040.88
2019-05-10T10:09:44.530Z,100037.89
2019-05-10T10:12:08.662Z,100039.45
2019-05-10T10:14:42.599Z,100042.84
2019-05-10T10:17:08.888Z,100040.88
2019-05-10T10:19:40.706Z,100037.28
2019-05-10T10:22:11.104Z,100045.69
2019-05-10T10:24:41.108Z,100043.05
2019-05-10T10:27:10.629Z,100049.19
2019-05-10T10:29:43.229Z,100047.71
2019-05-10T10:32:13.608Z,100045.43
2019-05-10T10:34:43.287Z,100046.64
2019-05-10T10:37:14.611Z,100046.17
2019-05-10T10:39:43.416Z,100030.66
2019-05-10T10:42:13.416Z,100028.45
2019-05-10T10:44:42.612Z,100030.17
2019-05-10T10:47:11.724Z,100026.17
2019-05-10T10:49:41.261Z,100026.77
2019-05-10T10:52:13.496Z,100028.45
2019-05-10T10:54:42.350Z,100032.42
2019-05-10T10:57:11.796Z,100038.13
2019-05-10T10:59:40.879Z,100028.84
2019-05-10T11:02:31.506Z,100026.58
2019-05-10T11:04:46.938Z,100034.13
2019-05-10T11:07:12.288Z,100027.88
2019-05-10T11:09:41.385Z,100028.11
2019-05-10T11:12:14.691Z,100022.16
2019-05-10T11:14:45.374Z,100020.32
2019-05-10T11:17:12.440Z,100022.91
2019-05-10T11:19:41.804Z,100015.28
2019-05-10T11:22:11.071Z,100014.84
2019-05-10T11:24:40.528Z,100008.19
2019-05-10T11:27:13.097Z,100007.47
2019-05-10T11:29:41.790Z,100008.02
2019-05-10T11:32:16.768Z,100005.16
2019-05-10T11:34:43.122Z,100006.59
2019-05-10T11:37:12.251Z,100010.32
2019-05-10T11:39:46.676Z,100009.52
2019-05-10T11:42:15.412Z,100012.12
2019-05-10T11:44:50.185Z,100013.69
2019-05-10T11:47:24.019Z,100020.20
2019-05-10T11:49:44.772Z,100015.09
2019-05-10T11:52:13.877Z,100012.25
2019-05-10T11:54:44.082Z,100004.55
2019-05-10T11:57:13.957Z,100002.33
2019-05-10T11:59:43.160Z,100009.50
2019-05-10T12:02:33.910Z,99992.77
2019-05-10T12:04:43.601Z,100002.09
2019-05-10T12:07:13.153Z,99999.67
2019-05-10T12:09:43.719Z,99995.45
2019-05-10T12:12:12.765Z,99993.31
2019-05-10T12:14:43.644Z,99989.94
2019-05-10T12:17:14.319Z,99997.88
2019-05-10T12:19:48.772Z,99995.77
2019-05-10T12:22:15.786Z,100001.72
2019-05-10T12:26:33.848Z,100006.53
2019-05-10T12:27:25.367Z,100006.53
2019-05-10T12:29:55.556Z,100002.96
2019-05-10T12:32:17.867Z,100003.03
2019-05-10T12:34:52.049Z,100000.55
2019-05-10T12:37:17.691Z,99997.52
2019-05-10T12:39:47.003Z,99999.77
2019-05-10T12:42:16.309Z,99995.34
2019-05-10T12:44:48.055Z,100003.42
2019-05-10T12:47:16.192Z,100006.12
2019-05-10T12:49:45.229Z,100000.22
2019-05-10T12:52:16.185Z,100007.42
2019-05-10T12:54:46.346Z,100009.68
2019-05-10T12:57:16.774Z,100009.19
2019-05-10T12:59:45.819Z,100003.50
2019-05-10T13:02:15.174Z,100013.19
2019-05-10T13:04:47.198Z,100016.45
2019-05-10T13:07:15.051Z,100018.52
2019-05-10T13:09:44.445Z,100014.98
2019-05-10T13:12:13.531Z,100011.17
2019-05-10T13:14:46.576Z,100008.05
2019-05-10T13:17:16.935Z,100005.06
2019-05-10T13:19:44.482Z,99997.77
2019-05-10T13:22:13.586Z,100001.98
2019-05-10T13:24:42.913Z,100001.30
2019-05-10T13:27:11.976Z,100003.89
2019-05-10T13:29:46.494Z,100002.41
2019-05-10T13:32:14.796Z,99997.91
2019-05-10T13:34:42.931Z,100002.64
2019-05-10T13:37:13.627Z,99998.72
2019-05-10T13:39:44.161Z,99993.89
2019-05-10T13:42:13.215Z,99992.59
2019-05-10T13:44:42.838Z,99987.05
2019-05-10T13:47:13.427Z,99990.44
2019-05-10T13:49:42.499Z,99993.76
2019-05-10T13:52:11.639Z,99996.45
2019-05-10T13:54:40.963Z,100000.78
2019-05-10T13:57:10.210Z,100008.70
2019-05-10T13:59:39.397Z,99997.14
2019-05-10T14:02:08.770Z,99991.70
2019-05-10T14:04:38.607Z,99993.22
2019-05-10T14:07:08.689Z,99996.33
2019-05-10T14:09:38.338Z,99992.44
2019-05-10T14:12:07.404Z,99998.42
2019-05-10T14:14:36.494Z,99995.94
2019-05-10T14:17:05.959Z,99993.05
2019-05-10T14:19:35.973Z,99999.69
2019-05-10T14:22:08.326Z,99997.65
2019-05-10T14:24:37.688Z,100002.06
2019-05-10T14:29:34.821Z,99991.55
2019-05-10T14:32:02.565Z,99996.39
2019-05-10T14:34:31.686Z,99997.81
2019-05-10T14:37:00.793Z,99993.84
2019-05-10T14:39:31.265Z,100001.17
2019-05-10T14:42:00.358Z,100000.46
2019-05-10T14:44:29.477Z,100003.09
2019-05-10T14:46:58.868Z,100001.48
2019-05-10T14:49:27.967Z,100008.86
2019-05-10T14:51:59.342Z,100000.11
2019-05-10T14:54:42.640Z,100006.47
2019-05-10T14:56:58.966Z,100007.91
2019-05-10T14:59:28.057Z,100015.42
2019-05-10T15:01:57.509Z,100008.92
2019-05-10T15:04:44.420Z,100012.44
2019-05-10T15:06:57.574Z,100021.57
2019-05-10T15:09:26.933Z,100022.78
2019-05-10T15:11:56.041Z,100026.58
2019-05-10T15:14:25.174Z,100028.56
2019-05-10T15:16:54.542Z,100023.70
2019-05-10T15:19:26.444Z,100023.82
2019-05-10T15:21:54.645Z,100017.23
2019-05-10T15:24:23.985Z,99999.59
2019-05-10T15:26:53.032Z,100004.39
2019-05-10T15:29:24.523Z,100010.37
2019-05-10T15:31:52.901Z,100001.62
2019-05-10T15:34:22.017Z,100006.91
2019-05-10T15:36:51.455Z,100002.64
2019-05-10T15:39:22.900Z,100003.28
2019-05-10T15:41:53.608Z,100002.14
2019-05-10T15:44:30.097Z,99998.13
2019-05-10T15:46:53.209Z,100003.16
2019-05-10T15:49:24.371Z,100002.15
2019-05-10T15:52:00.461Z,100001.46
2019-05-10T15:54:24.869Z,100005.68
2019-05-10T15:56:55.596Z,100006.92
2019-05-10T15:59:25.031Z,100011.91
2019-05-10T16:01:54.414Z,100007.39
2019-05-10T16:04:23.555Z,100011.34
2019-05-10T16:06:52.626Z,100017.41
2019-05-10T16:09:22.534Z,100013.34
2019-05-10T16:11:56.028Z,100015.50
2019-05-10T16:14:22.435Z,100013.27
2019-05-10T16:16:51.914Z,100015.19
2019-05-10T16:19:22.539Z,100023.01
2019-05-10T16:21:54.670Z,100025.81
2019-05-10T16:24:44.121Z,100029.41
2019-05-10T16:27:13.569Z,100029.75
2019-05-10T16:29:44.370Z,100033.19
2019-05-10T16:32:13.416Z,100032.34
2019-05-10T16:34:42.612Z,100032.70
2019-05-10T16:37:12.542Z,100038.21
2019-05-10T16:39:41.721Z,100036.52
2019-05-10T16:42:10.811Z,100039.80
2019-05-10T16:44:52.337Z,100027.28
2019-05-10T16:47:21.928Z,100024.63
2019-05-10T16:49:55.825Z,100032.70
2019-05-10T16:52:27.950Z,100033.48
2019-05-10T16:54:57.984Z,100028.32
2019-05-10T16:57:31.869Z,100026.44
2019-05-10T17:00:01.877Z,100026.45
2019-05-10T17:02:28.764Z,100024.07
2019-05-10T17:04:57.853Z,100031.52
2019-05-10T17:07:26.984Z,100037.66
2019-05-10T17:09:56.396Z,100037.31
2019-05-10T17:12:27.491Z,100024.34
2019-05-10T17:15:02.006Z,100025.61
2019-05-10T17:17:31.246Z,100029.12
2019-05-10T17:19:58.800Z,100030.77
2019-05-10T17:22:27.863Z,100026.78
2019-05-10T17:25:03.308Z,100030.53
2019-05-10T17:27:28.137Z,100023.28
2019-05-10T17:29:57.311Z,100023.22
2019-05-10T17:32:26.854Z,100015.25
2019-05-10T17:34:59.253Z,100011.11
2019-05-10T17:37:29.766Z,100014.28
2019-05-10T17:39:57.757Z,100003.92
2019-05-10T17:42:26.875Z,100006.94
2019-05-10T17:45:01.658Z,99994.88
2019-05-10T17:47:31.644Z,99987.83
2019-05-10T17:49:57.778Z,99990.96
2019-05-10T17:52:26.811Z,99989.34
2019-05-10T17:54:56.176Z,99994.65
2019-05-10T17:57:25.232Z,99989.19
2019-05-10T17:59:54.664Z,99990.47
2019-05-10T18:02:24.169Z,99995.67
2019-05-10T18:04:53.236Z,100001.50
2019-05-10T18:07:22.286Z,99992.83
2019-05-10T18:09:51.719Z,99990.69
2019-05-10T18:12:26.120Z,99991.98
2019-05-10T18:14:56.027Z,100001.36
2019-05-10T18:17:25.883Z,100004.16
2019-05-10T18:19:56.664Z,100004.44
2019-05-10T18:22:24.517Z,100010.41
2019-05-10T18:24:53.924Z,100003.36
2019-05-10T18:27:23.025Z,100009.55
2019-05-10T18:29:52.131Z,100010.64
2019-05-10T18:32:22.685Z,100014.64
2019-05-10T18:34:51.921Z,100012.14
2019-05-10T18:37:21.848Z,100012.77
2019-05-10T18:39:52.875Z,100019.35
2019-05-10T18:42:25.529Z,100017.00
2019-05-10T18:44:54.204Z,100021.63
2019-05-10T18:47:23.718Z,100020.45
2019-05-10T18:49:52.800Z,100024.84
2019-05-10T18:52:21.873Z,100026.52
2019-05-10T18:54:51.296Z,100030.39
2019-05-10T18:57:20.358Z,100028.36
2019-05-10T18:59:49.544Z,100035.51
2019-05-10T19:02:19.942Z,100040.16
2019-05-10T19:04:52.023Z,100044.94
2019-05-10T19:07:20.068Z,100039.72
2019-05-10T19:09:49.521Z,100044.36
2019-05-10T19:12:22.021Z,100047.64
2019-05-10T19:14:49.479Z,100042.95
2019-05-10T19:17:19.910Z,100047.02
2019-05-10T19:19:48.969Z,100038.70
2019-05-10T19:22:18.058Z,100042.27
2019-05-10T19:24:47.443Z,100044.97
2019-05-10T19:27:16.630Z,100053.01
2019-05-10T19:29:47.805Z,100048.70
2019-05-10T19:32:20.068Z,100052.92
2019-05-10T19:34:56.955Z,100052.98
2019-05-10T19:37:29.660Z,100067.96
2019-05-10T19:39:50.597Z,100069.86
2019-05-10T19:42:19.886Z,100067.63
2019-05-10T19:44:49.594Z,100061.14
2019-05-10T19:47:20.078Z,100058.95
2019-05-10T19:49:51.865Z,100060.75
2019-05-10T19:52:25.613Z,100061.28
2019-05-10T19:54:51.947Z,100062.12
2019-05-10T19:57:20.986Z,100063.53
2019-05-10T19:59:50.352Z,100063.25
2019-05-10T20:02:19.717Z,100066.98
2019-05-10T20:04:48.776Z,100074.74
2019-05-10T20:07:17.842Z,100074.14
2019-05-10T20:09:47.385Z,100070.30
2019-05-10T20:12:16.657Z,100066.81
2019-05-10T20:14:45.811Z,100064.30
2019-05-10T20:17:14.982Z,100062.99
2019-05-10T20:19:44.112Z,100069.47
2019-05-10T20:22:13.518Z,100059.52
2019-05-10T20:24:42.712Z,100060.21
2019-05-10T20:27:11.848Z,100052.80
2019-05-10T20:29:51.349Z,100048.28
2019-05-10T20:32:27.205Z,100049.61
2019-05-10T20:35:03.999Z,100054.86
2019-05-10T20:37:34.822Z,100050.95
2019-05-10T20:40:15.336Z,100055.86
2019-05-10T20:42:44.450Z,100058.59
2019-05-10T20:45:48.411Z,100056.98
2019-05-10T20:48:18.530Z,100052.20
2019-05-10T20:50:49.259Z,100052.16
2019-05-10T20:53:32.719Z,100049.98
2019-05-10T20:56:02.917Z,100046.11
2019-05-10T20:58:32.373Z,100033.51
2019-05-10T21:01:02.290Z,100034.42
2019-05-10T21:03:32.052Z,100045.31
2019-05-10T21:06:01.377Z,100056.21
2019-05-10T21:08:30.442Z,100057.33
2019-05-10T21:11:00.298Z,100051.89
2019-05-10T21:13:29.469Z,100048.16
2019-05-10T21:16:03.756Z,100053.39
2019-05-10T21:18:33.414Z,100049.55
2019-05-10T21:21:02.972Z,100039.77
2019-05-10T21:23:32.270Z,100040.16
2019-05-10T21:26:01.847Z,100040.80
2019-05-10T21:28:31.060Z,100036.02
2019-05-10T21:31:00.251Z,100036.33
2019-05-10T21:33:29.847Z,100038.31
2019-05-10T21:35:59.285Z,100032.19
2019-05-10T21:38:33.069Z,100035.47
2019-05-10T21:40:59.659Z,100024.27
2019-05-10T21:43:29.242Z,100017.61
2019-05-10T21:45:58.553Z,100019.66
2019-05-10T21:48:27.999Z,100011.26
2019-05-10T21:50:57.204Z,100010.03
2019-05-10T21:53:26.427Z,100011.64
2019-05-10T21:55:55.835Z,100006.62
2019-05-10T21:58:24.957Z,100008.30
2019-05-10T22:00:54.477Z,100008.29
2019-05-10T22:03:23.619Z,100011.06
2019-05-10T22:05:52.688Z,100004.33
2019-05-10T22:08:21.788Z,100001.91
2019-05-10T22:10:51.289Z,100001.78
2019-05-10T22:13:20.437Z,100003.84
2019-05-10T22:15:49.518Z,100002.77
2019-05-10T22:18:18.680Z,99994.57
2019-05-10T22:20:48.044Z,99987.84
2019-05-10T22:23:17.120Z,99981.48
2019-05-10T22:25:46.176Z,99974.27
2019-05-10T22:28:15.287Z,99974.38
2019-05-10T22:30:44.376Z,99973.90
2019-05-10T22:33:13.435Z,99962.11
2019-05-10T22:35:42.437Z,99955.61
2019-05-10T22:38:12.024Z,99954.06
2019-05-10T22:40:41.414Z,99945.78
2019-05-10T22:43:10.537Z,99942.75
2019-05-10T22:45:40.051Z,99940.59
2019-05-10T22:48:09.087Z,99941.67
2019-05-10T22:50:38.157Z,99936.09
2019-05-10T22:53:07.219Z,99934.42
2019-05-10T22:55:36.617Z,99931.64
2019-05-10T22:58:08.793Z,99921.44
2019-05-10T23:00:37.846Z,99927.81
2019-05-10T23:03:07.183Z,99933.14
2019-05-10T23:05:36.208Z,99938.78
2019-05-10T23:08:08.456Z,99941.67
2019-05-10T23:10:38.056Z,99951.66
2019-05-10T23:13:07.121Z,99959.93
2019-05-10T23:15:36.201Z,99956.71
2019-05-10T23:18:08.256Z,99943.94
2019-05-10T23:20:37.913Z,99936.38
2019-05-10T23:23:07.048Z,99935.66
2019-05-10T23:25:36.111Z,99931.94
2019-05-10T23:28:05.970Z,99928.92
2019-05-10T23:30:35.489Z,99938.66
2019-05-10T23:33:04.601Z,99940.35
2019-05-10T23:35:33.617Z,99942.16
2019-05-10T23:38:06.260Z,99935.31
2019-05-10T23:40:35.306Z,99923.75
2019-05-10T23:43:05.452Z,99925.57
2019-05-10T23:45:34.501Z,99923.64
2019-05-10T23:48:06.342Z,99917.63
2019-05-10T23:50:35.382Z,99906.55
2019-05-10T23:53:05.004Z,99895.88
2019-05-10T23:55:34.098Z,99894.79
2019-05-10T23:58:06.356Z,99893.36
